x

South Kodiak - 310nm Ssw Of Kodiak, Ak (46066) Wave Buoy

9:50pm - Mon 6th Jul 2015 All times are UTC.

  • Sig Wave height 8.5ft
  • Swell Direction
  • Peak Period 9s
  • Average Period 7s
  • Wind
    11mph, 13mph gusts
  • Sea Temp 50°f
  • Air Temp 50°f
  • Sea Pressure 1010.9mb

More Historic Weather Station data

Upgrade to MSW Pro to gain access to the past 30 days of data for over 8000 Wavebouys and Weather Stations around the globe.

Join Pro

Comparision Forecast

View Surf forecast
   
Mon 07/06 9:50pm 8.5ft 9s 7s 11 13 mph 1010.9mb 50f 50f
8:50pm 7ft 9s 7s 11 13 mph 1010.7mb 50f 50f
7:50pm 8ft 9s 7s 9 11 mph 1010.2mb 49f 50f
6:50pm 7.5ft 10s 7s 7 9 mph 1010mb 49f 50f
5:50pm 8ft 8s 7s 9 11 mph 1009.9mb 49f 49f
4:50pm 7.5ft 9s 7s 9 11 mph 1009.6mb 49f 49f
3:50pm 7ft 9s 7s 7 9 mph 1009mb 49f 49f
2:50pm 8ft 9s 7s 7 9 mph 1008.9mb 49f 49f
1:50pm 8ft 9s 7s 9
mph
1008.7mb 49f 49f
12:50pm 7.5ft 9s 7s 7 9 mph 1008.9mb 49f 49f
11:50am 8ft 10s 7s 4 7 mph 1009mb 49f 49f
10:50am 8ft 9s 7s 4 7 mph 1009.5mb 49f 49f
9:50am 8.5ft 9s 7s 4 7 mph 1009.5mb 49f 49f
8:50am 9ft 9s 7s 4 7 mph 1009.5mb 49f 49f
7:50am 8.5ft 9s 7s 4 7 mph 1009.7mb 49f 49f
6:50am 9ft 9s 7s 4 7 mph 1009.6mb 49f 49f
5:50am 10ft 9s 7s 2 4 mph 1009.5mb 49f 49f
4:50am 9ft 9s 7s 4 7 mph 1009.7mb 49f 50f
3:50am 9.5ft 9s 7s 9 11 mph 1009.3mb 49f 50f
2:50am 8ft 9s 7s 11 13 mph 1009.3mb 49f 50f
1:50am 10ft 9s 7s 13 16 mph 1009.6mb 49f 51f
12:50am 10ft 9s 7s 16 20 mph 1009.2mb 49f 51f
Sun 07/05 11:50pm 9ft 9s 7s 16 20 mph 1009.1mb 49f 51f
10:50pm 10ft 9s 7s 18 22 mph 1009.2mb 49f 52f
9:50pm 10ft 8s 7s 22 27 mph 1008.9mb 49f 52f
8:50pm 10ft 8s 6s 25 31 mph 1008.3mb 49f 52f
7:50pm 10ft 8s 6s 27 34 mph 1007.9mb 50f 53f
6:50pm 10ft 8s 6s 25 29 mph 1007.4mb 49f 52f
5:50pm 9.5ft 8s 6s 27 34 mph 1007.2mb 49f 53f
4:50pm 9.5ft 7s 6s 27 34 mph 1006.5mb 49f 53f
3:50pm 8.5ft 7s 6s 29 36 mph 1007mb 49f 53f
2:50pm 8ft 6s 6s 27 31 mph 1007.3mb 49f 52f
1:50pm 7ft 9s 6s 27 31 mph 1007.7mb 50f 52f
12:50pm 7ft 9s 6s 25 29 mph 1008.4mb 50f 52f
11:50am 7ft 9s 6s 22 29 mph 1009.2mb 50f 51f
10:50am 6.5ft 9s 6s 22 27 mph 1010mb 50f 51f
9:50am 6.5ft 9s 6s 22 27 mph 1010.6mb 50f 51f
8:50am 6.5ft 10s 6s 20 25 mph 1011.3mb 50f 51f
7:50am 6ft 10s 6s 18 20 mph 1012.1mb 50f 51f
6:50am 6ft 8s 6s 16 20 mph 1012.6mb 50f 51f
5:50am 6.5ft 9s 6s 13 16 mph 1012.9mb 50f 51f
4:50am 6.5ft 9s 6s 16 18 mph 1013.4mb 50f 51f
3:50am 6ft 7s 6s 16 18 mph 1013.6mb 50f 51f
2:50am 7ft 9s 6s 13 16 mph 1013.6mb 50f 50f
1:50am 7ft 9s 6s 13 18 mph 1013.8mb 50f 50f
12:50am 7.5ft 8s 7s 11 13 mph 1013.9mb 50f 50f
Sat 07/04 11:50pm 7.5ft 10s 7s 11 16 mph 1014.1mb 50f 50f
10:50pm 8ft 8s 7s 13 16 mph 1014.2mb 50f 50f
9:50pm 7.5ft 10s 7s 16 18 mph 1014mb 50f 50f
8:50pm 8ft 7s 6s 16 20 mph 1013.3mb 49f 50f
7:50pm 8ft 8s 6s 16 20 mph 1012.7mb 49f 50f
6:50pm 8ft 10s 6s 20 22 mph 1012.6mb 49f 49f
5:50pm 8ft 7s 6s 20 25 mph 1012mb 49f 49f
4:50pm 7ft 7s 6s 20 27 mph 1011.2mb 49f 50f
3:50pm 7ft 6s 6s 20 27 mph 1010.7mb 50f 50f
2:50pm 6.5ft 6s 6s 25 29 mph 1010mb 50f 50f
1:50pm 6ft 7s 5s 22 27 mph 1009.4mb 50f 50f
12:50pm 6ft 8s 5s 22 25 mph 1008.7mb 50f 51f
11:50am 6ft 7s 6s 20 25 mph 1008.2mb 50f 51f
10:50am 6ft 7s 6s 22 25 mph 1007.8mb 50f 51f
9:50am 6ft 8s 6s 20 22 mph 1007.1mb 50f 51f
8:50am 5.5ft 7s 6s 20 22 mph 1006.7mb 50f 51f
7:50am 6ft 7s 6s 16 20 mph 1006.5mb 50f 51f
6:50am 6ft 7s 6s 11 13 mph 1006.5mb 50f 51f
5:50am 6ft 7s 6s 9 11 mph 1006.6mb 50f 51f
4:50am 6.5ft 8s 6s 9 11 mph 1006.8mb 50f 51f
3:50am 7ft 8s 6s 11 13 mph 1006.7mb 50f 51f
2:50am 7ft 8s 6s 11
mph
1007.1mb 50f 51f
1:50am 6ft 8s 6s 11 13 mph 1007.3mb 50f 50f
12:50am 6.5ft 8s 6s 13 16 mph 1007.5mb 50f 50f
Fri 07/03 11:50pm 7ft 8s 7s 13 16 mph 1007.3mb 50f 51f
10:50pm 7ft 8s 6s 13 16 mph 1007.1mb 50f 51f
9:50pm 7.5ft 8s 6s 13 16 mph 1007.3mb 50f 51f
8:50pm 8ft 8s 6s 11 13 mph 1007.3mb 50f 51f
7:50pm 8.5ft 8s 6s 16 18 mph 1007.4mb 49f 51f
6:50pm 9ft 8s 6s 16 20 mph 1007.6mb 49f 51f
5:50pm 9ft 8s 6s 20 25 mph 1007.8mb 49f 51f
4:50pm 9.5ft 8s 6s 22 27 mph 1008.4mb 49f 51f
3:50pm 9ft 7s 6s 25 29 mph 1009.1mb 49f 51f
2:50pm 9.5ft 8s 6s 25 29 mph 1009.8mb 50f 50f
1:50pm 9ft 8s 6s 25 31 mph 1010.4mb 49f 50f
12:50pm 8ft 8s 6s 25 29 mph 1011.3mb 49f 51f
11:50am 8ft 8s 6s 25 31 mph 1012.3mb 49f 51f
10:50am 8ft 8s 6s 25 29 mph 1013.4mb 50f 51f
9:50am 7.5ft 8s 6s 25 31 mph 1014.3mb 50f 51f
8:50am 7.5ft 6s 6s 25 29 mph 1014.9mb 50f 51f
7:50am 7ft 8s 5s 25 29 mph 1015.8mb 50f 51f
6:50am 6.5ft 6s 5s 22 27 mph 1016.5mb 50f 51f
5:50am 6ft 6s 5s 22 27 mph 1017mb 50f 51f
4:50am 6ft 8s 5s 20 25 mph 1017.8mb 51f 51f
3:50am 5.5ft 8s 5s 20 25 mph 1018.1mb 51f 51f
2:50am 5ft 5s 5s 20 25 mph 1018.5mb 51f 51f
1:50am 5ft 8s 6s 20 25 mph 1019.2mb 51f 51f
12:50am 4.5ft 8s 6s 18 22 mph 1019.8mb 51f 51f
Thu 07/02 11:50pm 4ft 8s 6s 16 20 mph 1020.4mb 51f 51f
10:50pm 4.5ft 8s 6s 13 18 mph 1020.8mb 51f 51f